sensor_id;sensor_type;location;lat;lon;timestamp;pressure;altitude;pressure_sealevel;temperature;humidity
76496;BME280;65329;52.544;4.662;2022-12-10T00:01:35;100841.53;;;12.24;65.53
76496;BME280;65329;52.544;4.662;2022-12-10T00:04:02;100844.44;;;12.23;65.94
76496;BME280;65329;52.544;4.662;2022-12-10T00:06:33;100841.03;;;12.21;65.46
76496;BME280;65329;52.544;4.662;2022-12-10T00:09:02;100837.25;;;12.22;65.77
76496;BME280;65329;52.544;4.662;2022-12-10T00:11:30;100844.63;;;12.21;65.46
76496;BME280;65329;52.544;4.662;2022-12-10T00:13:57;100843.09;;;12.19;65.71
76496;BME280;65329;52.544;4.662;2022-12-10T00:16:26;100846.03;;;12.17;65.53
76496;BME280;65329;52.544;4.662;2022-12-10T00:18:54;100840.56;;;12.17;65.36
76496;BME280;65329;52.544;4.662;2022-12-10T00:21:25;100850.66;;;12.17;65.76
76496;BME280;65329;52.544;4.662;2022-12-10T00:23:52;100853.41;;;12.17;65.93
76496;BME280;65329;52.544;4.662;2022-12-10T00:26:23;100866.38;;;12.15;65.89
76496;BME280;65329;52.544;4.662;2022-12-10T00:28:51;100869.13;;;12.15;65.73
76496;BME280;65329;52.544;4.662;2022-12-10T00:31:21;100866.56;;;12.13;65.52
76496;BME280;65329;52.544;4.662;2022-12-10T00:33:50;100870.34;;;12.12;65.84
76496;BME280;65329;52.544;4.662;2022-12-10T00:36:21;100858.94;;;12.09;65.67
76496;BME280;65329;52.544;4.662;2022-12-10T00:38:49;100869.88;;;12.09;65.65
76496;BME280;65329;52.544;4.662;2022-12-10T00:41:16;100859.31;;;12.06;65.14
76496;BME280;65329;52.544;4.662;2022-12-10T00:43:43;100860.38;;;12.05;65.41
76496;BME280;65329;52.544;4.662;2022-12-10T00:46:11;100854.72;;;12.06;65.47
76496;BME280;65329;52.544;4.662;2022-12-10T00:48:39;100851.31;;;12.04;65.11
76496;BME280;65329;52.544;4.662;2022-12-10T00:51:16;100847.72;;;12.04;65.05
76496;BME280;65329;52.544;4.662;2022-12-10T00:53:44;100848.28;;;11.99;65.02
76496;BME280;65329;52.544;4.662;2022-12-10T00:56:13;100853.56;;;12.01;64.93
76496;BME280;65329;52.544;4.662;2022-12-10T00:58:40;100854.59;;;12.00;65.27
76496;BME280;65329;52.544;4.662;2022-12-10T01:03:34;100862.78;;;12.00;64.90
76496;BME280;65329;52.544;4.662;2022-12-10T01:06:18;100865.91;;;11.97;64.99
76496;BME280;65329;52.544;4.662;2022-12-10T01:08:46;100865.91;;;11.97;64.77
76496;BME280;65329;52.544;4.662;2022-12-10T01:11:15;100866.94;;;11.96;65.07
76496;BME280;65329;52.544;4.662;2022-12-10T01:13:43;100865.22;;;11.95;64.69
76496;BME280;65329;52.544;4.662;2022-12-10T01:16:12;100865.59;;;11.92;64.84
76496;BME280;65329;52.544;4.662;2022-12-10T01:18:40;100867.31;;;11.93;65.00
76496;BME280;65329;52.544;4.662;2022-12-10T01:21:13;100870.22;;;11.91;65.11
76496;BME280;65329;52.544;4.662;2022-12-10T01:23:41;100871.25;;;11.90;64.98
76496;BME280;65329;52.544;4.662;2022-12-10T01:26:14;100863.25;;;11.89;64.65
76496;BME280;65329;52.544;4.662;2022-12-10T01:28:42;100864.28;;;11.88;64.98
76496;BME280;65329;52.544;4.662;2022-12-10T01:31:14;100877.94;;;11.88;64.85
76496;BME280;65329;52.544;4.662;2022-12-10T01:33:42;100867.00;;;11.88;64.57
76496;BME280;65329;52.544;4.662;2022-12-10T01:36:17;100865.31;;;11.87;64.70
76496;BME280;65329;52.544;4.662;2022-12-10T01:38:44;100860.06;;;11.85;64.58
76496;BME280;65329;52.544;4.662;2022-12-10T01:41:18;100869.44;;;11.83;64.58
76496;BME280;65329;52.544;4.662;2022-12-10T01:46:37;100876.13;;;11.80;64.78
76496;BME280;65329;52.544;4.662;2022-12-10T01:49:13;100877.00;;;11.81;64.70
76496;BME280;65329;52.544;4.662;2022-12-10T01:51:42;100870.84;;;11.79;64.59
76496;BME280;65329;52.544;4.662;2022-12-10T01:54:14;100880.72;;;11.80;64.63
76496;BME280;65329;52.544;4.662;2022-12-10T01:56:45;100883.47;;;11.80;64.69
76496;BME280;65329;52.544;4.662;2022-12-10T01:59:12;100884.50;;;11.79;64.64
76496;BME280;65329;52.544;4.662;2022-12-10T02:02:16;100880.72;;;11.80;64.76
76496;BME280;65329;52.544;4.662;2022-12-10T02:05:13;100882.16;;;11.76;64.73
76496;BME280;65329;52.544;4.662;2022-12-10T02:08:27;100890.34;;;11.76;64.58
76496;BME280;65329;52.544;4.662;2022-12-10T02:13:40;100888.34;;;11.70;64.67
76496;BME280;65329;52.544;4.662;2022-12-10T02:19:04;100900.78;;;11.72;64.53
76496;BME280;65329;52.544;4.662;2022-12-10T02:21:38;100895.50;;;11.71;64.65
76496;BME280;65329;52.544;4.662;2022-12-10T02:24:14;100902.00;;;11.70;64.73
76496;BME280;65329;52.544;4.662;2022-12-10T02:29:22;100899.25;;;11.70;64.46
76496;BME280;65329;52.544;4.662;2022-12-10T02:31:59;100906.78;;;11.68;64.49
76496;BME280;65329;52.544;4.662;2022-12-10T02:34:29;100903.22;;;11.67;64.36
76496;BME280;65329;52.544;4.662;2022-12-10T02:37:01;100900.69;;;11.66;64.31
76496;BME280;65329;52.544;4.662;2022-12-10T02:39:35;100890.78;;;11.65;64.49
76496;BME280;65329;52.544;4.662;2022-12-10T02:42:05;100895.59;;;11.63;64.59
76496;BME280;65329;52.544;4.662;2022-12-10T02:44:35;100887.72;;;11.59;64.55
76496;BME280;65329;52.544;4.662;2022-12-10T02:47:05;100883.94;;;11.60;64.63
76496;BME280;65329;52.544;4.662;2022-12-10T02:49:36;100884.66;;;11.63;64.56
76496;BME280;65329;52.544;4.662;2022-12-10T02:52:08;100887.72;;;11.59;64.43
76496;BME280;65329;52.544;4.662;2022-12-10T02:54:38;100877.81;;;11.58;64.40
76496;BME280;65329;52.544;4.662;2022-12-10T02:57:12;100886.38;;;11.55;64.75
76496;BME280;65329;52.544;4.662;2022-12-10T03:08:54;100883.66;;;11.55;64.47
76496;BME280;65329;52.544;4.662;2022-12-10T03:11:23;100875.81;;;11.52;64.33
76496;BME280;65329;52.544;4.662;2022-12-10T03:14:07;100873.94;;;11.53;64.31
76496;BME280;65329;52.544;4.662;2022-12-10T03:16:40;100876.00;;;11.51;64.49
76496;BME280;65329;52.544;4.662;2022-12-10T03:19:15;100874.31;;;11.50;64.26
76496;BME280;65329;52.544;4.662;2022-12-10T03:21:44;100881.84;;;11.48;64.28
76496;BME280;65329;52.544;4.662;2022-12-10T03:24:13;100884.38;;;11.49;64.33
76496;BME280;65329;52.544;4.662;2022-12-10T03:26:44;100883.72;;;11.47;64.19
76496;BME280;65329;52.544;4.662;2022-12-10T03:29:34;100880.16;;;11.47;64.49
76496;BME280;65329;52.544;4.662;2022-12-10T03:32:02;100869.78;;;11.42;64.65
76496;BME280;65329;52.544;4.662;2022-12-10T03:34:29;100880.50;;;11.44;64.32
76496;BME280;65329;52.544;4.662;2022-12-10T03:36:57;100865.19;;;11.43;64.45
76496;BME280;65329;52.544;4.662;2022-12-10T03:39:25;100868.72;;;11.43;64.28
76496;BME280;65329;52.544;4.662;2022-12-10T03:41:52;100875.22;;;11.42;64.41
76496;BME280;65329;52.544;4.662;2022-12-10T03:44:29;100875.22;;;11.42;64.54
76496;BME280;65329;52.544;4.662;2022-12-10T03:46:56;100871.19;;;11.38;64.57
76496;BME280;65329;52.544;4.662;2022-12-10T03:49:24;100871.81;;;11.40;64.60
76496;BME280;65329;52.544;4.662;2022-12-10T03:51:51;100881.06;;;11.39;64.43
76496;BME280;65329;52.544;4.662;2022-12-10T03:54:18;100878.31;;;11.39;64.45
76496;BME280;65329;52.544;4.662;2022-12-10T03:56:45;100873.59;;;11.33;64.34
76496;BME280;65329;52.544;4.662;2022-12-10T03:59:12;100872.56;;;11.34;64.23
76496;BME280;65329;52.544;4.662;2022-12-10T04:01:39;100885.38;;;11.34;64.40
76496;BME280;65329;52.544;4.662;2022-12-10T04:04:06;100873.59;;;11.33;64.18
76496;BME280;65329;52.544;4.662;2022-12-10T04:06:32;100880.75;;;11.34;64.37
76496;BME280;65329;52.544;4.662;2022-12-10T04:08:59;100884.50;;;11.33;64.49
76496;BME280;65329;52.544;4.662;2022-12-10T04:11:26;100880.09;;;11.32;64.28
76496;BME280;65329;52.544;4.662;2022-12-10T04:13:53;100883.19;;;11.29;64.48
76496;BME280;65329;52.544;4.662;2022-12-10T04:16:38;100880.66;;;11.28;64.55
76496;BME280;65329;52.544;4.662;2022-12-10T04:19:13;100890.34;;;11.30;64.34
76496;BME280;65329;52.544;4.662;2022-12-10T04:21:42;100884.22;;;11.28;64.38
76496;BME280;65329;52.544;4.662;2022-12-10T04:24:30;100889.00;;;11.26;64.42
76496;BME280;65329;52.544;4.662;2022-12-10T04:27:20;100889.38;;;11.23;64.11
76496;BME280;65329;52.544;4.662;2022-12-10T04:29:49;100878.47;;;11.23;64.52
76496;BME280;65329;52.544;4.662;2022-12-10T04:32:16;100877.97;;;11.20;64.48
76496;BME280;65329;52.544;4.662;2022-12-10T04:34:43;100883.06;;;11.23;64.63
76496;BME280;65329;52.544;4.662;2022-12-10T04:37:10;100876.78;;;11.22;64.56
76496;BME280;65329;52.544;4.662;2022-12-10T04:39:38;100887.00;;;11.20;64.59
76496;BME280;65329;52.544;4.662;2022-12-10T04:42:06;100893.50;;;11.19;64.53
76496;BME280;65329;52.544;4.662;2022-12-10T04:44:34;100882.41;;;11.21;64.61
76496;BME280;65329;52.544;4.662;2022-12-10T04:47:01;100881.72;;;11.19;64.59
76496;BME280;65329;52.544;4.662;2022-12-10T04:49:29;100885.97;;;11.21;64.74
76496;BME280;65329;52.544;4.662;2022-12-10T04:51:57;100891.78;;;11.18;64.33
76496;BME280;65329;52.544;4.662;2022-12-10T04:54:24;100878.16;;;11.18;64.31
76496;BME280;65329;52.544;4.662;2022-12-10T04:56:52;100890.09;;;11.17;64.81
76496;BME280;65329;52.544;4.662;2022-12-10T04:59:19;100891.13;;;11.16;64.67
76496;BME280;65329;52.544;4.662;2022-12-10T05:01:46;100888.41;;;11.16;65.00
76496;BME280;65329;52.544;4.662;2022-12-10T05:04:15;100892.16;;;11.15;64.62
76496;BME280;65329;52.544;4.662;2022-12-10T05:06:43;100890.47;;;11.14;64.99
76496;BME280;65329;52.544;4.662;2022-12-10T05:09:11;100892.16;;;11.15;64.63
76496;BME280;65329;52.544;4.662;2022-12-10T05:11:38;100895.56;;;11.17;64.55
76496;BME280;65329;52.544;4.662;2022-12-10T05:14:05;100893.88;;;11.16;64.71
76496;BME280;65329;52.544;4.662;2022-12-10T05:16:33;100890.97;;;11.18;64.58
76496;BME280;65329;52.544;4.662;2022-12-10T05:19:00;100888.41;;;11.16;64.48
76496;BME280;65329;52.544;4.662;2022-12-10T05:21:28;100888.03;;;11.19;64.58
76496;BME280;65329;52.544;4.662;2022-12-10T05:24:17;100885.31;;;11.19;64.71
76496;BME280;65329;52.544;4.662;2022-12-10T05:26:44;100893.13;;;11.22;64.74
76496;BME280;65329;52.544;4.662;2022-12-10T05:29:13;100889.38;;;11.23;64.76
76496;BME280;65329;52.544;4.662;2022-12-10T05:31:40;100887.50;;;11.24;64.73
76496;BME280;65329;52.544;4.662;2022-12-10T05:34:06;100887.69;;;11.22;64.76
76496;BME280;65329;52.544;4.662;2022-12-10T05:36:35;100881.19;;;11.23;64.63
76496;BME280;65329;52.544;4.662;2022-12-10T05:39:02;100881.88;;;11.25;64.79
76496;BME280;65329;52.544;4.662;2022-12-10T05:41:31;100877.25;;;11.26;64.58
76496;BME280;65329;52.544;4.662;2022-12-10T05:44:00;100889.88;;;11.27;64.87
76496;BME280;65329;52.544;4.662;2022-12-10T05:46:29;100887.59;;;11.30;64.79
76496;BME280;65329;52.544;4.662;2022-12-10T05:48:57;100890.50;;;11.29;64.60
76496;BME280;65329;52.544;4.662;2022-12-10T05:51:26;100886.97;;;11.28;64.75
76496;BME280;65329;52.544;4.662;2022-12-10T05:53:54;100892.03;;;11.31;64.82
76496;BME280;65329;52.544;4.662;2022-12-10T05:56:23;100893.91;;;11.31;64.60
76496;BME280;65329;52.544;4.662;2022-12-10T05:58:53;100893.91;;;11.31;64.96
76496;BME280;65329;52.544;4.662;2022-12-10T06:01:23;100894.56;;;11.33;65.01
76496;BME280;65329;52.544;4.662;2022-12-10T06:03:50;100899.19;;;11.32;64.99
76496;BME280;65329;52.544;4.662;2022-12-10T06:06:23;100900.88;;;11.33;64.75
76496;BME280;65329;52.544;4.662;2022-12-10T06:08:50;100902.56;;;11.34;64.88
76496;BME280;65329;52.544;4.662;2022-12-10T06:11:18;100902.56;;;11.34;64.93
76496;BME280;65329;52.544;4.662;2022-12-10T06:13:44;100906.84;;;11.37;64.79
76496;BME280;65329;52.544;4.662;2022-12-10T06:16:13;100905.31;;;11.34;65.16
76496;BME280;65329;52.544;4.662;2022-12-10T06:18:40;100912.28;;;11.37;65.15
76496;BME280;65329;52.544;4.662;2022-12-10T06:21:10;100904.28;;;11.35;64.81
76496;BME280;65329;52.544;4.662;2022-12-10T06:23:39;100913.13;;;11.37;65.00
76496;BME280;65329;52.544;4.662;2022-12-10T06:26:08;100916.53;;;11.39;64.99
76496;BME280;65329;52.544;4.662;2022-12-10T06:28:36;100917.38;;;11.40;64.84
76496;BME280;65329;52.544;4.662;2022-12-10T06:31:03;100919.25;;;11.39;64.98
76496;BME280;65329;52.544;4.662;2022-12-10T06:33:30;100917.22;;;11.41;64.88
76496;BME280;65329;52.544;4.662;2022-12-10T06:35:57;100920.94;;;11.40;64.66
76496;BME280;65329;52.544;4.662;2022-12-10T06:38:24;100925.22;;;11.43;65.14
76496;BME280;65329;52.544;4.662;2022-12-10T06:40:51;100926.03;;;11.43;64.84
76496;BME280;65329;52.544;4.662;2022-12-10T06:43:19;100944.13;;;11.44;65.00
76496;BME280;65329;52.544;4.662;2022-12-10T06:45:45;100937.63;;;11.45;65.00
76496;BME280;65329;52.544;4.662;2022-12-10T06:48:12;100943.09;;;11.45;64.84
76496;BME280;65329;52.544;4.662;2022-12-10T06:50:38;100937.63;;;11.45;64.79
76496;BME280;65329;52.544;4.662;2022-12-10T06:53:05;100940.38;;;11.45;64.87
76496;BME280;65329;52.544;4.662;2022-12-10T06:55:32;100935.94;;;11.44;64.67
76496;BME280;65329;52.544;4.662;2022-12-10T06:57:59;100942.72;;;11.48;64.95
76496;BME280;65329;52.544;4.662;2022-12-10T07:00:25;100944.59;;;11.48;65.25
76496;BME280;65329;52.544;4.662;2022-12-10T07:02:52;100946.50;;;11.47;65.29
76496;BME280;65329;52.544;4.662;2022-12-10T07:05:19;100942.72;;;11.48;65.27
76496;BME280;65329;52.544;4.662;2022-12-10T07:07:45;100945.66;;;11.47;64.86
76496;BME280;65329;52.544;4.662;2022-12-10T07:10:13;100945.81;;;11.45;65.39
76496;BME280;65329;52.544;4.662;2022-12-10T07:12:39;100942.06;;;11.46;65.11
76496;BME280;65329;52.544;4.662;2022-12-10T07:15:06;100951.97;;;11.47;65.02
76496;BME280;65329;52.544;4.662;2022-12-10T07:17:33;100957.41;;;11.47;65.15
76496;BME280;65329;52.544;4.662;2022-12-10T07:20:00;100949.88;;;11.49;65.31
76496;BME280;65329;52.544;4.662;2022-12-10T07:22:27;100950.91;;;11.48;64.89
76496;BME280;65329;52.544;4.662;2022-12-10T07:24:54;100956.19;;;11.50;65.17
76496;BME280;65329;52.544;4.662;2022-12-10T07:27:21;100967.97;;;11.50;64.87
76496;BME280;65329;52.544;4.662;2022-12-10T07:29:47;100965.25;;;11.50;64.88
76496;BME280;65329;52.544;4.662;2022-12-10T07:32:14;100971.72;;;11.49;64.87
76496;BME280;65329;52.544;4.662;2022-12-10T07:34:41;100970.53;;;11.52;65.27
76496;BME280;65329;52.544;4.662;2022-12-10T07:37:07;100968.81;;;11.51;65.00
76496;BME280;65329;52.544;4.662;2022-12-10T07:39:34;100969.66;;;11.51;64.96
76496;BME280;65329;52.544;4.662;2022-12-10T07:42:01;100968.97;;;11.49;64.88
76496;BME280;65329;52.544;4.662;2022-12-10T07:44:27;100971.34;;;11.52;64.82
76496;BME280;65329;52.544;4.662;2022-12-10T07:46:55;100969.66;;;11.51;65.14
76496;BME280;65329;52.544;4.662;2022-12-10T07:49:22;100966.75;;;11.53;64.88
76496;BME280;65329;52.544;4.662;2022-12-10T07:51:49;100972.22;;;11.53;64.98
76496;BME280;65329;52.544;4.662;2022-12-10T07:54:17;100976.81;;;11.52;64.95
76496;BME280;65329;52.544;4.662;2022-12-10T07:56:44;100981.25;;;11.53;64.75
76496;BME280;65329;52.544;4.662;2022-12-10T07:59:11;100976.44;;;11.55;65.12
76496;BME280;65329;52.544;4.662;2022-12-10T08:01:38;100971.34;;;11.52;65.10
76496;BME280;65329;52.544;4.662;2022-12-10T08:04:04;100974.94;;;11.53;65.04
76496;BME280;65329;52.544;4.662;2022-12-10T08:06:31;100978.53;;;11.53;64.86
76496;BME280;65329;52.544;4.662;2022-12-10T08:08:59;100982.78;;;11.56;65.18
76496;BME280;65329;52.544;4.662;2022-12-10T08:11:26;100989.09;;;11.56;64.79
76496;BME280;65329;52.544;4.662;2022-12-10T08:13:54;100982.78;;;11.56;64.80
76496;BME280;65329;52.544;4.662;2022-12-10T08:16:24;100979.84;;;11.57;64.98
76496;BME280;65329;52.544;4.662;2022-12-10T08:18:53;100977.50;;;11.54;65.15
76496;BME280;65329;52.544;4.662;2022-12-10T08:21:23;100984.47;;;11.57;65.02
76496;BME280;65329;52.544;4.662;2022-12-10T08:23:50;100983.63;;;11.56;64.90
76496;BME280;65329;52.544;4.662;2022-12-10T08:26:21;100996.06;;;11.59;65.06
76496;BME280;65329;52.544;4.662;2022-12-10T08:28:48;101001.50;;;11.59;65.06
76496;BME280;65329;52.544;4.662;2022-12-10T08:31:17;101000.84;;;11.57;65.21
76496;BME280;65329;52.544;4.662;2022-12-10T08:33:44;101003.38;;;11.58;65.51
76496;BME280;65329;52.544;4.662;2022-12-10T08:36:13;100997.09;;;11.58;65.18
76496;BME280;65329;52.544;4.662;2022-12-10T08:38:41;101005.09;;;11.59;65.21
76496;BME280;65329;52.544;4.662;2022-12-10T08:41:09;101014.31;;;11.58;65.01
76496;BME280;65329;52.544;4.662;2022-12-10T08:43:36;101011.56;;;11.58;65.22
76496;BME280;65329;52.544;4.662;2022-12-10T08:46:03;101016.03;;;11.59;65.09
76496;BME280;65329;52.544;4.662;2022-12-10T08:48:31;101011.56;;;11.58;64.97
76496;BME280;65329;52.544;4.662;2022-12-10T08:50:58;101010.56;;;11.59;64.98
76496;BME280;65329;52.544;4.662;2022-12-10T08:53:25;101021.31;;;11.61;65.05
76496;BME280;65329;52.544;4.662;2022-12-10T08:55:52;101018.44;;;11.63;64.96
76496;BME280;65329;52.544;4.662;2022-12-10T08:58:20;101027.59;;;11.61;65.07
76496;BME280;65329;52.544;4.662;2022-12-10T09:00:48;101032.06;;;11.63;64.79
76496;BME280;65329;52.544;4.662;2022-12-10T09:03:16;101040.09;;;11.64;64.61
76496;BME280;65329;52.544;4.662;2022-12-10T09:05:43;101031.72;;;11.66;64.82
76496;BME280;65329;52.544;4.662;2022-12-10T09:08:10;101036.13;;;11.67;64.83
76496;BME280;65329;52.544;4.662;2022-12-10T09:10:38;101033.03;;;11.70;65.04
76496;BME280;65329;52.544;4.662;2022-12-10T09:13:05;101033.91;;;11.70;65.25
76496;BME280;65329;52.544;4.662;2022-12-10T09:15:31;101038.31;;;11.71;64.90
76496;BME280;65329;52.544;4.662;2022-12-10T09:17:58;101036.47;;;11.72;64.93
76496;BME280;65329;52.544;4.662;2022-12-10T09:20:25;101045.28;;;11.74;65.40
76496;BME280;65329;52.544;4.662;2022-12-10T09:22:52;101042.38;;;11.75;65.21
76496;BME280;65329;52.544;4.662;2022-12-10T09:25:18;101039.66;;;11.75;65.44
76496;BME280;65329;52.544;4.662;2022-12-10T09:27:47;101044.94;;;11.77;65.27
76496;BME280;65329;52.544;4.662;2022-12-10T09:30:16;101042.88;;;11.79;65.26
76496;BME280;65329;52.544;4.662;2022-12-10T09:32:43;101042.03;;;11.78;65.61
76496;BME280;65329;52.544;4.662;2022-12-10T09:35:10;101055.50;;;11.80;65.26
76496;BME280;65329;52.544;4.662;2022-12-10T09:37:36;101054.66;;;11.79;65.38
76496;BME280;65329;52.544;4.662;2022-12-10T09:40:03;101054.31;;;11.82;65.64
76496;BME280;65329;52.544;4.662;2022-12-10T09:46:24;101059.41;;;11.85;65.53
76496;BME280;65329;52.544;4.662;2022-12-10T09:51:23;101055.63;;;11.86;65.90
76496;BME280;65329;52.544;4.662;2022-12-10T09:53:53;101056.50;;;11.87;65.76
76496;BME280;65329;52.544;4.662;2022-12-10T09:56:31;101054.41;;;11.89;66.01
76496;BME280;65329;52.544;4.662;2022-12-10T09:59:02;101063.28;;;11.91;65.83
76496;BME280;65329;52.544;4.662;2022-12-10T10:01:31;101057.13;;;11.89;65.59
76496;BME280;65329;52.544;4.662;2022-12-10T10:03:59;101068.75;;;11.91;65.88
76496;BME280;65329;52.544;4.662;2022-12-10T10:06:27;101062.25;;;11.92;65.70
76496;BME280;65329;52.544;4.662;2022-12-10T10:08:59;101070.44;;;11.92;65.70
76496;BME280;65329;52.544;4.662;2022-12-10T10:11:32;101076.41;;;11.95;65.88
76496;BME280;65329;52.544;4.662;2022-12-10T10:14:20;101073.00;;;12.16;65.62
76496;BME280;65329;52.544;4.662;2022-12-10T10:16:51;101084.66;;;12.10;65.28
76496;BME280;65329;52.544;4.662;2022-12-10T10:19:29;101083.31;;;12.06;65.69
76496;BME280;65329;52.544;4.662;2022-12-10T10:21:57;101077.19;;;12.04;66.00
76496;BME280;65329;52.544;4.662;2022-12-10T10:24:31;101083.50;;;12.04;65.94
76496;BME280;65329;52.544;4.662;2022-12-10T10:27:11;101080.78;;;12.04;66.23
76496;BME280;65329;52.544;4.662;2022-12-10T10:29:38;101075.50;;;12.03;66.17
76496;BME280;65329;52.544;4.662;2022-12-10T10:32:18;101072.38;;;12.06;66.25
76496;BME280;65329;52.544;4.662;2022-12-10T10:34:50;101075.13;;;12.06;66.41
76496;BME280;65329;52.544;4.662;2022-12-10T10:37:25;101072.38;;;12.06;66.29
76496;BME280;65329;52.544;4.662;2022-12-10T10:39:55;101072.56;;;12.04;66.45
76496;BME280;65329;52.544;4.662;2022-12-10T10:42:35;101078.53;;;12.08;66.06
76496;BME280;65329;52.544;4.662;2022-12-10T10:45:04;101073.06;;;12.08;66.28
76496;BME280;65329;52.544;4.662;2022-12-10T10:47:34;101066.75;;;12.07;66.44
76496;BME280;65329;52.544;4.662;2022-12-10T10:50:05;101077.31;;;12.10;65.90
76496;BME280;65329;52.544;4.662;2022-12-10T10:52:37;101073.72;;;12.10;66.28
76496;BME280;65329;52.544;4.662;2022-12-10T10:55:04;101066.38;;;12.10;65.94
76496;BME280;65329;52.544;4.662;2022-12-10T10:57:36;101075.25;;;12.12;66.13
76496;BME280;65329;52.544;4.662;2022-12-10T11:00:19;101067.88;;;12.13;66.06
76496;BME280;65329;52.544;4.662;2022-12-10T11:02:46;101062.41;;;12.13;66.51
76496;BME280;65329;52.544;4.662;2022-12-10T11:05:25;101062.41;;;12.13;66.45
76496;BME280;65329;52.544;4.662;2022-12-10T11:08:05;101074.72;;;12.17;66.58
76496;BME280;65329;52.544;4.662;2022-12-10T11:10:47;101063.97;;;12.15;66.15
76496;BME280;65329;52.544;4.662;2022-12-10T11:13:26;101054.91;;;12.15;66.50
76496;BME280;65329;52.544;4.662;2022-12-10T11:18:35;101056.59;;;12.16;66.32
76496;BME280;65329;52.544;4.662;2022-12-10T11:23:31;101063.41;;;12.20;66.09
76496;BME280;65329;52.544;4.662;2022-12-10T11:34:20;101057.94;;;12.20;66.20
76496;BME280;65329;52.544;4.662;2022-12-10T11:44:54;101078.59;;;12.22;66.22
76496;BME280;65329;52.544;4.662;2022-12-10T11:50:07;101068.50;;;12.23;66.53
76496;BME280;65329;52.544;4.662;2022-12-10T11:53:02;101075.47;;;12.25;66.55
76496;BME280;65329;52.544;4.662;2022-12-10T12:09:29;101088.97;;;12.27;66.60
76496;BME280;65329;52.544;4.662;2022-12-10T12:12:03;101098.03;;;12.27;66.21
76496;BME280;65329;52.544;4.662;2022-12-10T12:14:45;101105.19;;;12.28;66.49
76496;BME280;65329;52.544;4.662;2022-12-10T12:17:21;101084.53;;;12.26;66.28
76496;BME280;65329;52.544;4.662;2022-12-10T12:19:57;101091.84;;;12.85;73.06
76496;BME280;65329;52.544;4.662;2022-12-10T12:22:37;101076.69;;;13.76;61.74
76496;BME280;65329;52.544;4.662;2022-12-10T12:25:10;101088.44;;;12.46;65.85
76496;BME280;65329;52.544;4.662;2022-12-10T12:27:49;101089.28;;;12.09;67.86
76496;BME280;65329;52.544;4.662;2022-12-10T12:30:20;101081.72;;;12.11;70.58
76496;BME280;65329;52.544;4.662;2022-12-10T12:33:11;101080.28;;;12.01;68.97
76496;BME280;65329;52.544;4.662;2022-12-10T12:35:50;101086.41;;;12.03;69.25
76496;BME280;65329;52.544;4.662;2022-12-10T12:41:03;101072.97;;;11.93;69.53
76496;BME280;65329;52.544;4.662;2022-12-10T12:46:32;101089.16;;;12.03;70.05
76496;BME280;65329;52.544;4.662;2022-12-10T12:49:03;101091.50;;;12.06;69.95
76496;BME280;65329;52.544;4.662;2022-12-10T12:51:45;101091.50;;;12.06;69.90
76496;BME280;65329;52.544;4.662;2022-12-10T12:54:14;101088.78;;;12.06;70.17
76496;BME280;65329;52.544;4.662;2022-12-10T13:02:38;101091.16;;;12.09;70.14
76496;BME280;65329;52.544;4.662;2022-12-10T13:05:14;101060.22;;;11.86;69.87
76496;BME280;65329;52.544;4.662;2022-12-10T13:07:42;101091.50;;;12.06;69.86
76496;BME280;65329;52.544;4.662;2022-12-10T13:10:22;101089.81;;;12.05;69.97
76496;BME280;65329;52.544;4.662;2022-12-10T13:13:38;101101.03;;;12.10;69.74
76496;BME280;65329;52.544;4.662;2022-12-10T13:15:39;101100.22;;;12.09;69.55
76496;BME280;65329;52.544;4.662;2022-12-10T13:41:31;101095.84;;;12.00;70.11
76496;BME280;65329;52.544;4.662;2022-12-10T13:47:03;101106.88;;;12.07;70.05
76496;BME280;65329;52.544;4.662;2022-12-10T13:49:49;101103.84;;;12.02;69.89
76496;BME280;65329;52.544;4.662;2022-12-10T13:52:25;101098.38;;;12.02;69.61
76496;BME280;65329;52.544;4.662;2022-12-10T14:00:23;101100.44;;;12.00;69.86
76496;BME280;65329;52.544;4.662;2022-12-10T14:03:12;101111.50;;;12.06;69.68
76496;BME280;65329;52.544;4.662;2022-12-10T14:08:31;101110.28;;;12.09;69.61
76496;BME280;65329;52.544;4.662;2022-12-10T14:10:58;101114.50;;;12.11;69.92
76496;BME280;65329;52.544;4.662;2022-12-10T14:13:39;101115.75;;;12.09;69.62
76496;BME280;65329;52.544;4.662;2022-12-10T14:16:11;101119.50;;;12.08;69.57
76496;BME280;65329;52.544;4.662;2022-12-10T14:18:41;101116.59;;;12.09;69.75
76496;BME280;65329;52.544;4.662;2022-12-10T14:21:10;101118.47;;;12.09;70.12
76496;BME280;65329;52.544;4.662;2022-12-10T14:23:44;101115.06;;;12.07;69.56
76496;BME280;65329;52.544;4.662;2022-12-10T14:26:20;101124.44;;;12.12;69.99
76496;BME280;65329;52.544;4.662;2022-12-10T14:28:57;101118.34;;;12.25;70.40
76496;BME280;65329;52.544;4.662;2022-12-10T14:31:35;101123.53;;;12.20;69.40
76496;BME280;65329;52.544;4.662;2022-12-10T14:34:06;101122.53;;;12.13;69.77
76496;BME280;65329;52.544;4.662;2022-12-10T14:36:45;101117.94;;;12.13;70.01
76496;BME280;65329;52.544;4.662;2022-12-10T14:39:21;101112.16;;;12.08;69.88
76496;BME280;65329;52.544;4.662;2022-12-10T14:41:50;101116.78;;;12.08;69.83
76496;BME280;65329;52.544;4.662;2022-12-10T14:44:18;101124.97;;;12.08;69.77
76496;BME280;65329;52.544;4.662;2022-12-10T14:46:49;101131.63;;;12.05;69.65
76496;BME280;65329;52.544;4.662;2022-12-10T14:49:20;101133.72;;;12.03;69.86
76496;BME280;65329;52.544;4.662;2022-12-10T14:51:48;101132.50;;;12.06;70.02
76496;BME280;65329;52.544;4.662;2022-12-10T14:54:32;101139.97;;;12.12;69.69
76496;BME280;65329;52.544;4.662;2022-12-10T14:57:04;101132.81;;;12.11;69.61
76496;BME280;65329;52.544;4.662;2022-12-10T15:02:02;101140.16;;;12.10;69.91
76496;BME280;65329;52.544;4.662;2022-12-10T15:04:42;101131.78;;;12.12;69.60